Time;durP1;ratioP1;P1;durP2;ratioP2;P2;SDS_P1;SDS_P2;PMS_P1;PMS_P2;Temp;Humidity;BMP_temperature;BMP_pressure;BME280_temperature;BME280_humidity;BME280_pressure;Samples;Min_cycle;Max_cycle;Signal;HPM_P1;HPM_P2
2023/03/05 00:01:33;;;;;;;290.55;114.47;;;2.50;99.90;;;;;;5056778;28;20056;-62
2023/03/05 00:04:01;;;;;;;316.90;119.32;;;2.40;99.90;;;;;;5056624;28;20574;-62
2023/03/05 00:06:29;;;;;;;339.17;126.25;;;2.50;99.90;;;;;;5056717;28;20036;-62
2023/03/05 00:08:57;;;;;;;320.27;119.22;;;2.40;99.90;;;;;;5056599;28;20017;-63
2023/03/05 00:11:26;;;;;;;339.80;120.80;;;2.30;99.90;;;;;;5056771;28;20383;-62
2023/03/05 00:13:53;;;;;;;303.77;117.75;;;2.50;99.90;;;;;;5056773;28;20108;-62
2023/03/05 00:16:20;;;;;;;270.30;114.40;;;2.50;99.90;;;;;;5056441;28;20432;-62
2023/03/05 00:18:47;;;;;;;323.50;119.90;;;2.60;99.90;;;;;;5056312;28;20044;-63
2023/03/05 00:21:22;;;;;;;296.60;117.30;;;2.60;99.90;;;;;;5056389;28;20686;-62
2023/03/05 00:23:49;;;;;;;426.55;145.82;;;2.50;99.90;;;;;;5056530;28;20032;-62
2023/03/05 00:26:20;;;;;;;323.95;128.93;;;2.40;99.90;;;;;;5056431;28;20082;-62
2023/03/05 00:28:49;;;;;;;465.60;152.48;;;2.40;99.90;;;;;;5056150;28;20025;-63
2023/03/05 00:31:20;;;;;;;395.13;142.18;;;2.20;99.90;;;;;;5038391;28;20029;-62
2023/03/05 00:33:50;;;;;;;445.35;150.65;;;2.30;99.90;;;;;;5056303;28;20112;-62
2023/03/05 00:36:16;;;;;;;398.65;147.45;;;2.40;99.90;;;;;;5056214;28;20048;-63
2023/03/05 00:38:42;;;;;;;476.02;158.55;;;2.40;99.90;;;;;;5056141;28;20017;-62
2023/03/05 00:41:07;;;;;;;354.13;132.85;;;2.30;99.90;;;;;;5037908;28;20060;-62
2023/03/05 00:43:34;;;;;;;424.67;150.20;;;2.30;99.90;;;;;;5056173;28;20017;-63
2023/03/05 00:45:59;;;;;;;403.73;144.90;;;2.30;99.90;;;;;;5055723;28;20029;-62
2023/03/05 00:48:26;;;;;;;557.55;180.18;;;2.30;99.90;;;;;;5038063;28;20033;-62
2023/03/05 00:50:51;;;;;;;546.75;176.30;;;2.30;99.90;;;;;;5055923;28;20021;-62
2023/03/05 00:53:18;;;;;;;423.80;149.73;;;2.30;99.90;;;;;;5055874;28;20025;-63
2023/03/05 00:55:44;;;;;;;377.00;142.25;;;2.40;99.90;;;;;;5037835;28;20036;-63
2023/03/05 00:58:10;;;;;;;468.25;161.07;;;2.50;99.90;;;;;;5055760;28;20033;-62
2023/03/05 01:00:36;;;;;;;439.98;153.10;;;2.40;99.90;;;;;;5055787;28;20029;-62
2023/03/05 01:03:02;;;;;;;428.50;155.13;;;2.40;99.90;;;;;;5037596;28;20033;-62
2023/03/05 01:05:28;;;;;;;378.55;142.23;;;2.40;99.90;;;;;;5055546;28;20025;-61
2023/03/05 01:07:56;;;;;;;704.17;201.40;;;2.50;99.90;;;;;;5037695;28;20028;-63
2023/03/05 01:10:28;;;;;;;676.53;198.88;;;2.50;99.90;;;;;;5054416;28;20036;-62
2023/03/05 01:12:55;;;;;;;445.38;161.60;;;2.50;99.90;;;;;;5037396;28;20036;-62
2023/03/05 01:15:22;;;;;;;421.65;147.90;;;2.40;99.90;;;;;;5037345;28;20037;-62
2023/03/05 01:17:48;;;;;;;391.45;144.80;;;2.40;99.90;;;;;;5055351;28;20024;-62
2023/03/05 01:20:15;;;;;;;466.45;158.60;;;2.40;99.90;;;;;;5055301;28;20029;-62
2023/03/05 01:22:41;;;;;;;364.95;134.35;;;2.30;99.90;;;;;;5055219;28;20037;-62
2023/03/05 01:25:08;;;;;;;397.92;136.48;;;2.40;99.90;;;;;;5055210;28;20039;-62
2023/03/05 01:27:34;;;;;;;325.13;123.35;;;2.40;99.90;;;;;;5037238;28;20478;-62
2023/03/05 01:30:00;;;;;;;368.70;134.95;;;2.40;99.90;;;;;;5055032;28;20186;-62
2023/03/05 01:32:26;;;;;;;310.58;116.10;;;2.50;99.90;;;;;;5055040;28;20025;-62
2023/03/05 01:34:52;;;;;;;379.55;139.85;;;2.50;99.90;;;;;;5055064;28;20032;-62
2023/03/05 01:37:18;;;;;;;395.40;148.23;;;2.50;99.90;;;;;;5054963;28;20025;-62
2023/03/05 01:39:44;;;;;;;326.42;125.00;;;2.40;99.90;;;;;;5054919;28;20398;-63
2023/03/05 01:42:10;;;;;;;684.78;177.25;;;2.40;99.90;;;;;;5036961;28;20053;-62
2023/03/05 01:44:36;;;;;;;330.65;121.80;;;2.40;99.90;;;;;;5054591;28;20021;-62
2023/03/05 01:47:02;;;;;;;343.58;123.80;;;2.40;99.90;;;;;;5036852;28;20029;-62
2023/03/05 01:49:39;;;;;;;304.67;118.45;;;2.40;99.90;;;;;;5054668;28;20074;-61
2023/03/05 01:52:16;;;;;;;436.48;137.40;;;2.40;99.90;;;;;;5036915;28;20032;-63
2023/03/05 01:54:45;;;;;;;393.60;132.57;;;2.30;99.90;;;;;;5036800;28;20033;-62
2023/03/05 01:57:16;;;;;;;318.02;120.60;;;2.30;99.90;;;;;;5036771;28;20036;-62
2023/03/05 01:59:45;;;;;;;282.00;112.47;;;2.30;99.90;;;;;;5036736;28;20029;-63
2023/03/05 02:02:12;;;;;;;258.75;103.13;;;2.40;99.90;;;;;;5054495;28;20107;-63
2023/03/05 02:05:09;;;;;;;252.55;97.40;;;2.50;99.90;;;;;;5054567;28;20064;-63
2023/03/05 02:07:36;;;;;;;245.38;98.90;;;2.60;99.90;;;;;;5053492;28;20495;-62
2023/03/05 02:10:14;;;;;;;236.80;96.18;;;2.60;99.90;;;;;;5036597;28;20032;-62
2023/03/05 02:12:40;;;;;;;252.70;102.55;;;2.70;99.90;;;;;;5036794;28;20039;-62
2023/03/05 02:15:07;;;;;;;221.75;96.63;;;2.70;99.90;;;;;;5054477;28;20398;-62
2023/03/05 02:17:33;;;;;;;225.95;93.82;;;2.70;99.90;;;;;;5054266;28;20041;-62
2023/03/05 02:20:08;;;;;;;225.85;95.55;;;2.70;99.90;;;;;;5054360;28;20107;-62
2023/03/05 02:22:34;;;;;;;225.38;94.70;;;2.60;99.90;;;;;;5052797;28;20029;-63
2023/03/05 02:25:00;;;;;;;224.48;93.65;;;2.60;99.90;;;;;;5054367;28;20034;-62
2023/03/05 02:27:33;;;;;;;221.43;90.72;;;2.60;99.90;;;;;;5036355;28;20029;-62
2023/03/05 02:30:00;;;;;;;226.55;95.13;;;2.60;99.90;;;;;;5054373;28;20098;-62
2023/03/05 02:32:26;;;;;;;230.82;99.30;;;2.70;99.90;;;;;;5054066;28;20367;-62
2023/03/05 02:34:53;;;;;;;231.38;96.97;;;2.70;99.90;;;;;;5054220;28;20033;-62
2023/03/05 02:37:19;;;;;;;231.63;94.45;;;2.70;99.90;;;;;;5036449;28;20094;-62
2023/03/05 02:39:45;;;;;;;204.38;89.65;;;2.70;99.90;;;;;;5054129;28;20028;-63
2023/03/05 02:42:11;;;;;;;208.95;89.63;;;2.70;99.90;;;;;;5036107;28;20051;-62
2023/03/05 02:44:37;;;;;;;204.30;89.25;;;2.80;99.90;;;;;;5036191;28;20394;-62
2023/03/05 02:47:04;;;;;;;196.23;85.68;;;2.80;99.90;;;;;;5053976;28;20025;-62
2023/03/05 02:49:31;;;;;;;203.57;90.25;;;2.80;99.90;;;;;;5036286;28;20021;-62
2023/03/05 02:51:57;;;;;;;197.25;83.57;;;2.80;99.90;;;;;;5036050;28;20051;-62
2023/03/05 02:54:23;;;;;;;195.93;84.03;;;2.90;99.90;;;;;;5036105;28;20112;-62
2023/03/05 02:56:49;;;;;;;187.30;81.38;;;2.80;99.90;;;;;;5019745;28;20036;-62
2023/03/05 02:59:15;;;;;;;190.75;86.93;;;2.70;99.90;;;;;;5036112;28;20044;-62
2023/03/05 03:01:41;;;;;;;201.30;87.10;;;2.70;99.90;;;;;;5036133;28;20148;-63
2023/03/05 03:04:07;;;;;;;191.57;84.57;;;2.60;99.90;;;;;;5036102;28;20124;-62
2023/03/05 03:06:33;;;;;;;186.30;86.38;;;2.70;99.90;;;;;;5053954;28;20033;-62
2023/03/05 03:08:59;;;;;;;202.18;89.18;;;2.70;99.90;;;;;;5053814;28;20032;-63
2023/03/05 03:11:25;;;;;;;234.00;99.20;;;2.80;99.90;;;;;;5053868;28;20029;-62
2023/03/05 03:13:51;;;;;;;268.13;107.38;;;2.80;99.90;;;;;;5053864;28;20025;-62
2023/03/05 03:16:17;;;;;;;234.43;100.07;;;2.70;99.90;;;;;;5053772;28;20036;-62
2023/03/05 03:18:46;;;;;;;205.65;90.07;;;2.70;99.90;;;;;;5053641;28;20029;-62
2023/03/05 03:21:23;;;;;;;206.10;91.20;;;2.50;99.90;;;;;;5053840;28;20031;-62
2023/03/05 03:23:50;;;;;;;196.80;88.85;;;2.50;99.90;;;;;;5053484;28;20021;-62
2023/03/05 03:26:16;;;;;;;211.30;92.28;;;2.50;99.90;;;;;;5053856;28;20491;-62
2023/03/05 03:28:42;;;;;;;194.05;87.13;;;2.50;99.90;;;;;;5053585;28;20057;-62
2023/03/05 03:31:08;;;;;;;240.70;100.68;;;2.50;99.90;;;;;;5053908;28;20112;-63
2023/03/05 03:33:34;;;;;;;260.92;109.57;;;2.50;99.90;;;;;;5054226;28;20056;-63
2023/03/05 03:36:00;;;;;;;311.45;122.78;;;2.50;99.90;;;;;;5057326;28;20037;-62
2023/03/05 03:38:26;;;;;;;319.08;123.18;;;2.50;99.90;;;;;;5057335;28;20063;-62
2023/03/05 03:40:52;;;;;;;313.23;122.63;;;2.30;99.90;;;;;;5057293;28;20056;-62
2023/03/05 03:43:18;;;;;;;301.50;118.90;;;2.30;99.90;;;;;;5056888;28;20451;-62
2023/03/05 03:45:44;;;;;;;277.80;112.93;;;2.30;99.90;;;;;;5057041;28;20029;-62
2023/03/05 03:48:10;;;;;;;271.90;108.90;;;2.30;99.90;;;;;;5057082;28;20029;-63
2023/03/05 03:50:41;;;;;;;321.70;119.47;;;2.30;99.90;;;;;;5057076;28;20025;-63
2023/03/05 03:53:07;;;;;;;279.23;112.75;;;2.20;99.90;;;;;;5057031;28;20025;-62
2023/03/05 03:55:34;;;;;;;289.27;115.95;;;2.20;99.90;;;;;;5056992;28;20510;-62
2023/03/05 03:58:00;;;;;;;310.52;124.03;;;2.10;99.90;;;;;;5056750;28;20451;-62
2023/03/05 04:00:26;;;;;;;302.20;121.10;;;2.20;99.90;;;;;;5056863;28;20029;-62
2023/03/05 04:02:52;;;;;;;279.17;119.40;;;2.20;99.90;;;;;;5056894;28;20025;-63
2023/03/05 04:05:18;;;;;;;282.48;113.63;;;2.10;99.90;;;;;;5056633;28;20091;-62
2023/03/05 04:07:44;;;;;;;281.33;117.15;;;2.10;99.90;;;;;;5056695;28;20096;-62
2023/03/05 04:10:11;;;;;;;272.25;114.88;;;2.10;99.90;;;;;;5056629;28;20390;-62
2023/03/05 04:12:37;;;;;;;277.13;119.35;;;2.10;99.90;;;;;;5056626;28;20106;-62
2023/03/05 04:15:06;;;;;;;270.60;114.90;;;2.10;99.90;;;;;;5056591;28;20088;-62
2023/03/05 04:17:32;;;;;;;246.75;108.75;;;2.20;99.90;;;;;;5056438;28;20487;-62
2023/03/05 04:19:58;;;;;;;281.20;119.68;;;2.10;99.90;;;;;;5056364;28;20384;-62
2023/03/05 04:22:24;;;;;;;258.75;111.15;;;2.20;99.90;;;;;;5056547;28;20040;-62
2023/03/05 04:24:50;;;;;;;262.83;108.15;;;2.10;99.90;;;;;;5056331;28;20183;-62
2023/03/05 04:27:16;;;;;;;282.05;109.30;;;2.20;99.90;;;;;;5056588;28;20029;-62
2023/03/05 04:29:42;;;;;;;259.08;106.25;;;2.20;99.90;;;;;;5056350;28;20017;-62
2023/03/05 04:32:08;;;;;;;279.45;112.45;;;2.20;99.90;;;;;;5056300;28;20438;-62
2023/03/05 04:34:36;;;;;;;271.75;112.47;;;2.10;99.90;;;;;;5056382;28;20032;-62
2023/03/05 04:37:02;;;;;;;300.13;118.55;;;2.20;99.90;;;;;;5056263;28;20024;-62
2023/03/05 04:39:28;;;;;;;300.73;116.80;;;2.20;99.90;;;;;;5055900;28;20075;-62
2023/03/05 04:41:54;;;;;;;283.15;108.82;;;2.20;99.90;;;;;;5038175;28;20055;-63
2023/03/05 04:44:22;;;;;;;280.48;111.10;;;2.30;99.90;;;;;;5055820;28;20424;-62
2023/03/05 04:46:48;;;;;;;295.75;117.60;;;2.30;99.90;;;;;;5056159;28;20469;-63
2023/03/05 04:49:14;;;;;;;330.67;118.95;;;2.30;99.90;;;;;;5055926;28;20467;-62
2023/03/05 04:51:40;;;;;;;271.98;108.93;;;2.20;99.90;;;;;;5055994;28;20060;-61
2023/03/05 04:54:07;;;;;;;279.35;109.68;;;2.30;99.90;;;;;;5055747;28;20033;-62
2023/03/05 04:56:33;;;;;;;284.23;112.03;;;2.30;99.90;;;;;;5055955;28;20199;-62
2023/03/05 04:58:59;;;;;;;347.08;124.47;;;2.30;99.90;;;;;;5055784;28;20039;-63
2023/03/05 05:01:25;;;;;;;337.20;126.70;;;2.20;99.90;;;;;;5055742;28;20490;-62
2023/03/05 05:03:51;;;;;;;322.83;116.63;;;2.20;99.90;;;;;;5055644;28;20087;-63
2023/03/05 05:06:17;;;;;;;307.25;120.40;;;2.10;99.90;;;;;;5055868;28;20104;-62
2023/03/05 05:08:43;;;;;;;326.08;120.10;;;2.10;99.90;;;;;;5055434;28;20056;-62
2023/03/05 05:11:12;;;;;;;295.70;113.78;;;2.10;99.90;;;;;;5055561;28;20029;-62
2023/03/05 05:13:38;;;;;;;313.15;118.38;;;2.10;99.90;;;;;;5055523;28;20052;-62
2023/03/05 05:16:08;;;;;;;300.15;109.63;;;2.10;99.90;;;;;;5055473;28;20108;-63
2023/03/05 05:18:34;;;;;;;296.00;112.35;;;2.20;99.90;;;;;;5055279;28;20033;-62
2023/03/05 05:21:00;;;;;;;288.88;109.95;;;2.20;99.90;;;;;;5055287;28;20361;-62
2023/03/05 05:23:26;;;;;;;287.83;106.28;;;2.30;99.90;;;;;;5055086;28;20032;-63
2023/03/05 05:25:57;;;;;;;284.25;109.18;;;2.20;99.90;;;;;;5055112;28;20081;-62
2023/03/05 05:28:23;;;;;;;276.23;109.20;;;2.30;99.90;;;;;;5055270;28;20383;-62
2023/03/05 05:30:48;;;;;;;298.92;109.40;;;2.30;99.90;;;;;;5055168;28;20036;-63
2023/03/05 05:33:14;;;;;;;266.38;105.78;;;2.20;99.90;;;;;;5055130;28;20025;-62
2023/03/05 05:35:40;;;;;;;263.92;104.50;;;2.30;99.90;;;;;;5055192;28;20040;-62
2023/03/05 05:38:06;;;;;;;282.65;110.47;;;2.40;99.90;;;;;;5054955;28;20029;-62
2023/03/05 05:40:32;;;;;;;244.65;103.15;;;2.40;99.90;;;;;;5055068;28;20029;-62
2023/03/05 05:42:58;;;;;;;272.55;108.35;;;2.50;99.90;;;;;;5054743;28;20398;-62
2023/03/05 05:45:24;;;;;;;294.05;110.15;;;2.50;99.90;;;;;;5054691;28;20033;-63
2023/03/05 05:47:50;;;;;;;253.90;101.18;;;2.50;99.90;;;;;;5054916;28;20025;-63
2023/03/05 05:50:18;;;;;;;266.58;101.55;;;2.50;99.90;;;;;;5054683;28;20021;-61
2023/03/05 05:52:44;;;;;;;255.13;99.82;;;2.40;99.90;;;;;;5054746;28;20029;-63
2023/03/05 05:55:11;;;;;;;283.60;102.53;;;2.50;99.90;;;;;;5054717;28;20028;-62
2023/03/05 05:57:36;;;;;;;257.13;99.43;;;2.50;99.90;;;;;;5054179;28;20056;-62
2023/03/05 06:00:07;;;;;;;272.00;105.72;;;2.40;99.90;;;;;;5054442;28;20029;-62
2023/03/05 06:02:41;;;;;;;263.58;104.18;;;2.40;99.90;;;;;;5054662;28;20356;-62
2023/03/05 06:05:10;;;;;;;280.02;104.38;;;2.40;99.90;;;;;;5054494;28;20029;-62
2023/03/05 06:07:36;;;;;;;254.35;106.22;;;2.40;99.90;;;;;;5054426;28;20060;-62
2023/03/05 06:10:03;;;;;;;234.23;100.20;;;2.40;99.90;;;;;;5054666;28;20056;-61
2023/03/05 06:12:29;;;;;;;232.95;99.90;;;2.50;99.90;;;;;;5054495;28;20379;-63
2023/03/05 06:14:56;;;;;;;244.50;101.75;;;2.50;99.90;;;;;;5054510;28;20033;-62
2023/03/05 06:17:21;;;;;;;241.13;101.85;;;2.60;99.90;;;;;;5054190;28;20029;-63
2023/03/05 06:19:47;;;;;;;235.07;98.88;;;2.70;99.90;;;;;;5054327;28;20035;-62
2023/03/05 06:22:13;;;;;;;251.30;105.00;;;2.70;99.90;;;;;;5054298;28;20104;-63
2023/03/05 06:24:39;;;;;;;252.40;103.22;;;2.80;99.90;;;;;;5054324;28;20299;-63
2023/03/05 06:27:05;;;;;;;253.80;105.93;;;2.80;99.90;;;;;;5054325;28;20071;-62
2023/03/05 06:29:31;;;;;;;257.13;102.32;;;2.90;99.90;;;;;;5054439;28;20021;-63
2023/03/05 06:31:57;;;;;;;249.77;104.15;;;3.10;99.90;;;;;;5054158;28;20029;-62
2023/03/05 06:34:23;;;;;;;260.85;102.25;;;3.10;99.90;;;;;;5054203;28;20035;-62
2023/03/05 06:36:49;;;;;;;266.70;109.05;;;3.10;99.90;;;;;;5054167;28;20089;-62
2023/03/05 06:39:15;;;;;;;270.52;107.75;;;3.20;99.90;;;;;;5054154;28;20040;-62
2023/03/05 06:41:41;;;;;;;272.58;107.90;;;3.20;99.90;;;;;;5054004;28;20045;-62
2023/03/05 06:44:08;;;;;;;341.70;123.45;;;3.30;99.90;;;;;;5054127;28;20036;-62
2023/03/05 06:46:38;;;;;;;334.90;123.30;;;3.30;99.90;;;;;;5053978;28;20024;-62
2023/03/05 06:49:05;;;;;;;354.50;136.50;;;3.30;99.90;;;;;;5054028;28;20046;-62
2023/03/05 06:51:34;;;;;;;325.30;125.18;;;3.40;99.90;;;;;;5054142;28;20391;-62
2023/03/05 06:54:03;;;;;;;394.92;141.65;;;3.50;99.90;;;;;;5054123;28;20112;-62
2023/03/05 06:56:29;;;;;;;397.90;138.02;;;3.50;99.90;;;;;;5053973;28;20033;-62
2023/03/05 06:58:56;;;;;;;372.48;126.75;;;3.50;99.90;;;;;;5053921;28;20382;-62
2023/03/05 07:01:22;;;;;;;369.15;125.22;;;3.60;99.90;;;;;;5053643;28;20386;-62
2023/03/05 07:03:50;;;;;;;325.38;120.00;;;3.70;99.90;;;;;;5053846;28;20078;-63
2023/03/05 07:06:16;;;;;;;354.85;129.07;;;3.60;99.90;;;;;;5053908;28;20382;-62
2023/03/05 07:08:46;;;;;;;355.80;132.40;;;3.60;99.90;;;;;;5054555;28;20029;-62
2023/03/05 07:11:17;;;;;;;338.45;131.10;;;3.70;99.90;;;;;;5057770;28;20056;-62
2023/03/05 07:13:44;;;;;;;345.13;127.90;;;3.70;99.90;;;;;;5057628;28;20025;-62
2023/03/05 07:16:15;;;;;;;302.35;118.72;;;3.70;99.90;;;;;;5057726;28;20028;-62
2023/03/05 07:18:40;;;;;;;330.42;125.20;;;3.80;99.90;;;;;;5057536;28;20565;-62
2023/03/05 07:21:08;;;;;;;320.98;123.15;;;3.80;99.90;;;;;;5057641;28;20081;-62
2023/03/05 07:23:35;;;;;;;294.85;116.80;;;3.80;99.90;;;;;;5057610;28;20048;-63
2023/03/05 07:26:03;;;;;;;318.50;124.93;;;3.90;99.90;;;;;;5057431;28;20047;-62
2023/03/05 07:28:29;;;;;;;299.55;117.53;;;3.90;99.90;;;;;;5057551;28;20032;-62
2023/03/05 07:30:58;;;;;;;513.35;267.77;;;4.00;99.90;;;;;;5057407;28;20033;-63
2023/03/05 07:33:25;;;;;;;352.40;142.80;;;3.90;99.90;;;;;;5057496;28;20094;-62
2023/03/05 07:35:51;;;;;;;338.25;130.15;;;3.80;99.90;;;;;;5057385;28;20035;-63
2023/03/05 07:38:17;;;;;;;355.88;124.18;;;3.80;99.90;;;;;;5057371;28;20033;-62
2023/03/05 07:40:43;;;;;;;347.85;123.55;;;3.80;99.90;;;;;;5057251;28;20029;-63
2023/03/05 07:43:09;;;;;;;337.15;121.35;;;3.90;99.90;;;;;;5057089;28;20053;-62
2023/03/05 07:45:39;;;;;;;342.65;123.93;;;4.10;99.90;;;;;;5056997;28;20057;-63
2023/03/05 07:48:05;;;;;;;;;;;4.20;99.90;;;;;;5057592;28;20025;-62
2023/03/05 07:50:32;;;;;;;328.00;120.18;;;4.00;99.90;;;;;;5057153;28;19913;-63
2023/03/05 07:52:59;;;;;;;335.58;125.15;;;4.10;99.90;;;;;;5057082;28;20726;-62
2023/03/05 07:55:25;;;;;;;362.02;136.27;;;4.20;99.90;;;;;;5056868;28;20441;-62
2023/03/05 07:57:51;;;;;;;345.90;132.70;;;4.10;99.90;;;;;;5056871;28;20028;-62
2023/03/05 08:00:18;;;;;;;344.92;129.70;;;4.20;99.90;;;;;;5056910;28;20020;-62
2023/03/05 08:02:44;;;;;;;328.50;121.28;;;4.20;99.90;;;;;;5056821;28;20483;-62
2023/03/05 08:05:10;;;;;;;330.98;122.63;;;4.30;99.90;;;;;;5056748;28;20076;-62
2023/03/05 08:07:36;;;;;;;318.02;117.90;;;4.20;99.90;;;;;;5056704;28;20059;-62
2023/03/05 08:10:03;;;;;;;331.38;125.25;;;4.30;99.90;;;;;;5056752;28;20474;-63
2023/03/05 08:12:29;;;;;;;334.80;122.18;;;4.20;99.90;;;;;;5056750;28;20443;-62
2023/03/05 08:14:55;;;;;;;338.58;122.97;;;4.30;99.90;;;;;;5056673;28;20035;-63
2023/03/05 08:17:21;;;;;;;337.15;121.97;;;4.40;99.90;;;;;;5056398;28;20490;-62
2023/03/05 08:19:47;;;;;;;338.10;122.78;;;4.50;99.90;;;;;;5056306;28;20114;-62
2023/03/05 08:22:15;;;;;;;331.48;126.53;;;4.60;99.90;;;;;;5056484;28;20463;-63
2023/03/05 08:24:42;;;;;;;342.55;128.32;;;4.60;99.90;;;;;;5056279;28;20040;-63
2023/03/05 08:27:08;;;;;;;342.48;127.93;;;4.70;99.90;;;;;;5056488;28;20021;-62
2023/03/05 08:29:34;;;;;;;351.48;135.32;;;4.70;99.90;;;;;;5056439;28;20422;-63
2023/03/05 08:32:00;;;;;;;352.88;135.15;;;4.90;99.90;;;;;;5056591;28;20028;-62
2023/03/05 08:34:26;;;;;;;370.35;142.77;;;5.00;99.90;;;;;;5056292;28;20033;-63
2023/03/05 08:36:52;;;;;;;392.15;145.98;;;4.90;99.90;;;;;;5056206;28;20463;-63
2023/03/05 08:39:18;;;;;;;390.25;144.85;;;5.00;99.90;;;;;;5056194;28;20057;-63
2023/03/05 08:41:44;;;;;;;385.50;157.48;;;5.10;99.90;;;;;;5055958;28;20084;-63
2023/03/05 08:44:11;;;;;;;396.48;154.02;;;5.20;99.90;;;;;;5056100;28;20080;-62
2023/03/05 08:46:40;;;;;;;407.77;157.68;;;5.00;99.90;;;;;;5055925;28;20052;-63
2023/03/05 08:49:06;;;;;;;401.70;152.63;;;5.00;99.90;;;;;;5056047;28;20033;-63
2023/03/05 08:51:34;;;;;;;377.73;152.50;;;5.10;99.90;;;;;;5055919;28;20021;-63
2023/03/05 08:54:01;;;;;;;398.95;154.85;;;5.10;99.90;;;;;;5056023;28;20535;-63
2023/03/05 08:56:29;;;;;;;368.38;149.20;;;5.30;99.90;;;;;;5055739;28;20021;-63
2023/03/05 08:58:56;;;;;;;385.65;158.10;;;5.40;99.90;;;;;;5055866;28;20093;-64
2023/03/05 09:01:22;;;;;;;394.08;155.93;;;5.50;99.90;;;;;;5055858;28;20036;-63
2023/03/05 09:03:48;;;;;;;384.08;155.32;;;5.50;99.90;;;;;;5055729;28;20028;-63
2023/03/05 09:06:14;;;;;;;350.70;140.85;;;5.70;99.90;;;;;;5055549;28;20025;-63
2023/03/05 09:08:40;;;;;;;365.38;146.40;;;5.60;99.90;;;;;;5055608;28;20075;-63
2023/03/05 09:11:08;;;;;;;359.40;149.77;;;5.70;99.90;;;;;;5055497;28;20033;-63
2023/03/05 09:13:35;;;;;;;354.08;147.43;;;5.70;99.90;;;;;;5055540;28;20033;-63
2023/03/05 09:16:03;;;;;;;363.30;150.57;;;5.90;99.90;;;;;;5055382;28;20033;-63
2023/03/05 09:18:30;;;;;;;326.85;139.60;;;6.00;99.90;;;;;;5055144;28;20104;-63
2023/03/05 09:20:56;;;;;;;346.42;134.93;;;6.20;99.90;;;;;;5055285;28;20036;-63
2023/03/05 09:23:22;;;;;;;335.13;133.57;;;6.20;99.90;;;;;;5055403;28;20060;-63
2023/03/05 09:25:49;;;;;;;322.20;131.68;;;6.30;99.90;;;;;;5055268;28;20463;-63
2023/03/05 09:28:15;;;;;;;317.52;126.85;;;6.30;99.90;;;;;;5055123;28;20032;-63
2023/03/05 09:30:41;;;;;;;331.70;133.13;;;6.20;99.90;;;;;;5055209;28;20029;-63
2023/03/05 09:33:07;;;;;;;315.85;124.60;;;6.50;99.90;;;;;;5054383;28;20025;-63
2023/03/05 09:35:35;;;;;;;302.08;120.43;;;6.70;99.90;;;;;;5055284;28;20033;-63
2023/03/05 09:38:02;;;;;;;345.42;140.40;;;6.90;99.90;;;;;;5055161;28;20159;-63
2023/03/05 09:40:50;;;;;;;325.52;134.43;;;6.90;99.90;;;;;;5054933;28;20039;-63
2023/03/05 09:43:28;;;;;;;311.75;129.13;;;7.00;99.90;;;;;;5054762;28;20551;-64
2023/03/05 09:46:05;;;;;;;329.85;132.98;;;7.10;99.90;;;;;;5054605;28;20037;-63
2023/03/05 09:48:47;;;;;;;292.98;121.30;;;7.30;99.90;;;;;;5054935;28;20021;-64
2023/03/05 09:51:22;;;;;;;285.13;116.45;;;7.30;99.90;;;;;;5054896;28;20095;-63
2023/03/05 09:53:58;;;;;;;283.83;119.13;;;7.50;99.90;;;;;;5054780;28;20383;-64
2023/03/05 09:56:40;;;;;;;262.88;109.63;;;7.70;99.90;;;;;;5054831;28;20111;-64
2023/03/05 09:59:18;;;;;;;254.70;102.80;;;7.50;99.90;;;;;;5054672;28;20049;-63
2023/03/05 10:01:45;;;;;;;231.30;96.40;;;7.70;99.90;;;;;;5054596;28;20029;-64
2023/03/05 10:04:27;;;;;;;225.15;93.25;;;7.60;99.90;;;;;;5054669;28;20040;-64
2023/03/05 10:07:31;;;;;;;185.18;78.53;;;8.00;99.90;;;;;;5054509;28;20029;-64
2023/03/05 10:10:01;;;;;;;167.38;71.65;;;8.20;99.90;;;;;;5054039;28;20094;-64
2023/03/05 10:12:41;;;;;;;176.77;76.10;;;8.40;99.90;;;;;;5054554;28;20028;-64
2023/03/05 10:15:35;;;;;;;176.98;76.00;;;8.50;99.90;;;;;;5054443;28;20051;-64
2023/03/05 10:18:33;;;;;;;157.15;71.43;;;8.40;99.90;;;;;;5054276;28;20028;-64
2023/03/05 10:21:17;;;;;;;140.43;62.33;;;8.60;99.90;;;;;;5040053;28;20029;-64
2023/03/05 10:24:09;;;;;;;135.93;56.90;;;8.90;99.90;;;;;;5054321;28;20029;-64
2023/03/05 10:27:05;;;;;;;126.50;56.25;;;8.90;99.90;;;;;;5054405;28;20390;-64
2023/03/05 10:29:56;;;;;;;83.43;42.33;;;9.00;99.90;;;;;;5043782;28;20076;-64
2023/03/05 10:32:52;;;;;;;106.22;49.60;;;9.20;99.90;;;;;;5054452;28;20029;-64
2023/03/05 10:35:25;;;;;;;78.45;36.88;;;9.20;99.90;;;;;;5054209;28;20489;-64
2023/03/05 10:38:04;;;;;;;65.20;30.92;;;8.50;99.90;;;;;;5054224;28;20060;-64
2023/03/05 10:40:51;;;;;;;74.15;32.55;;;8.70;99.90;;;;;;5054306;28;20099;-64
2023/03/05 10:43:35;;;;;;;56.58;29.08;;;9.10;99.90;;;;;;5054535;28;20498;-64
2023/03/05 10:46:03;;;;;;;61.47;26.17;;;9.20;99.90;;;;;;5056783;28;20045;-65
2023/03/05 10:48:37;;;;;;;38.28;20.00;;;9.30;99.90;;;;;;5056961;28;20086;-64
2023/03/05 10:51:18;;;;;;;31.48;16.63;;;9.20;99.90;;;;;;5057010;28;20506;-64
2023/03/05 10:53:47;;;;;;;31.13;15.55;;;9.50;99.90;;;;;;5056651;28;20032;-64
2023/03/05 10:56:14;;;;;;;32.15;16.42;;;8.80;99.90;;;;;;5056809;28;20036;-64
2023/03/05 10:58:40;;;;;;;41.85;20.02;;;9.30;99.90;;;;;;5056566;28;20040;-65
2023/03/05 11:01:09;;;;;;;45.05;20.13;;;9.50;99.90;;;;;;5056775;28;20029;-64
2023/03/05 11:03:58;;;;;;;50.92;24.15;;;9.70;99.90;;;;;;5056723;28;20024;-64
2023/03/05 11:06:31;;;;;;;40.05;19.70;;;10.10;99.90;;;;;;5056793;28;20036;-64
2023/03/05 11:09:16;;;;;;;30.52;17.05;;;9.90;99.90;;;;;;5055392;28;20036;-64
2023/03/05 11:11:43;;;;;;;35.88;17.58;;;10.20;99.90;;;;;;5056459;28;20032;-64
2023/03/05 11:14:32;;;;;;;43.10;20.63;;;10.30;99.90;;;;;;5056462;28;20032;-64
2023/03/05 11:17:00;;;;;;;42.72;22.13;;;10.70;99.90;;;;;;5056653;28;20082;-64
2023/03/05 11:19:34;;;;;;;46.78;24.40;;;10.70;99.90;;;;;;5056029;28;20029;-64
2023/03/05 11:22:15;;;;;;;42.25;21.55;;;10.40;99.90;;;;;;5056462;28;20028;-65
2023/03/05 11:24:45;;;;;;;31.25;17.05;;;10.50;99.90;;;;;;5056098;28;20036;-65
2023/03/05 11:27:30;;;;;;;35.08;18.25;;;10.60;99.90;;;;;;5056212;28;20028;-65
2023/03/05 11:29:57;;;;;;;35.30;18.60;;;10.80;99.90;;;;;;5056187;28;20024;-65
2023/03/05 11:32:26;;;;;;;28.65;14.75;;;10.90;99.90;;;;;;5056274;28;20462;-65
2023/03/05 11:34:53;;;;;;;26.85;13.95;;;11.20;99.90;;;;;;5038331;28;20040;-65
2023/03/05 11:37:30;;;;;;;22.58;13.35;;;11.10;99.90;;;;;;5056129;28;20037;-65
2023/03/05 11:40:19;;;;;;;27.63;15.60;;;11.30;99.90;;;;;;5056022;28;20071;-64
2023/03/05 11:42:52;;;;;;;35.63;16.45;;;11.60;99.90;;;;;;5011356;28;1307944;-65
2023/03/05 11:45:18;;;;;;;32.30;16.52;;;11.80;99.90;;;;;;5057073;28;20458;-64
2023/03/05 11:47:53;;;;;;;35.53;18.55;;;12.10;99.90;;;;;;5057028;28;20462;-65
2023/03/05 11:50:29;;;;;;;34.38;19.40;;;12.20;99.90;;;;;;5057435;28;20033;-65
2023/03/05 11:53:24;;;;;;;34.75;18.67;;;11.80;99.90;;;;;;5057078;28;20082;-65
2023/03/05 11:55:50;;;;;;;38.72;17.92;;;12.10;99.90;;;;;;5038988;28;20395;-65
2023/03/05 11:58:26;;;;;;;30.27;16.67;;;12.00;99.90;;;;;;5056986;28;20037;-65
2023/03/05 12:00:52;;;;;;;31.27;16.70;;;12.10;99.90;;;;;;5056906;28;20387;-65
2023/03/05 12:03:23;;;;;;;33.40;17.23;;;12.00;99.90;;;;;;5056580;28;20093;-65
2023/03/05 12:05:56;;;;;;;28.98;16.42;;;11.70;99.90;;;;;;5056813;28;20094;-65
2023/03/05 12:08:32;;;;;;;28.58;14.30;;;11.80;99.90;;;;;;5056708;28;20028;-65
2023/03/05 12:11:04;;;;;;;27.23;13.68;;;11.30;99.90;;;;;;5056566;28;20025;-65
2023/03/05 12:13:36;;;;;;;22.58;13.65;;;11.40;99.90;;;;;;5056739;28;20024;-65
2023/03/05 12:16:19;;;;;;;30.38;14.80;;;11.70;99.90;;;;;;5056435;28;20036;-65
2023/03/05 12:19:20;;;;;;;25.10;13.35;;;12.20;99.90;;;;;;5056449;28;20497;-65
2023/03/05 12:21:49;;;;;;;23.70;12.90;;;12.60;99.90;;;;;;5056615;28;20150;-65
2023/03/05 12:24:24;;;;;;;27.35;13.68;;;12.50;99.90;;;;;;5056544;28;20122;-65
2023/03/05 12:27:02;;;;;;;24.05;13.23;;;12.30;99.90;;;;;;5056581;28;20031;-65
2023/03/05 12:29:48;;;;;;;22.45;13.63;;;12.50;99.90;;;;;;5056357;28;20390;-65
2023/03/05 12:32:33;;;;;;;21.63;11.68;;;12.70;99.90;;;;;;5056285;28;20071;-65